sensor_id;sensor_type;location;lat;lon;timestamp;P1;durP1;ratioP1;P2;durP2;ratioP2
39822;SDS011;25499;53.958;10.970;2023-03-13T08:28:06;7.10;;;3.20;;
39822;SDS011;25499;53.958;10.970;2023-03-13T08:30:32;8.60;;;3.10;;
39822;SDS011;25499;53.958;10.970;2023-03-13T08:32:58;8.75;;;3.33;;
39822;SDS011;25499;53.958;10.970;2023-03-13T08:35:23;9.95;;;2.47;;
39822;SDS011;25499;53.958;10.970;2023-03-13T08:37:49;5.57;;;2.33;;
39822;SDS011;25499;53.958;10.970;2023-03-13T08:40:16;9.70;;;2.45;;
39822;SDS011;25499;53.958;10.970;2023-03-13T08:42:41;6.47;;;2.78;;
39822;SDS011;25499;53.958;10.970;2023-03-13T08:45:07;5.85;;;2.70;;
39822;SDS011;25499;53.958;10.970;2023-03-13T08:47:32;4.60;;;2.78;;
39822;SDS011;25499;53.958;10.970;2023-03-13T08:49:58;3.92;;;2.20;;
39822;SDS011;25499;53.958;10.970;2023-03-13T08:52:23;5.10;;;2.22;;
39822;SDS011;25499;53.958;10.970;2023-03-13T08:54:50;4.38;;;2.10;;
39822;SDS011;25499;53.958;10.970;2023-03-13T08:57:15;5.00;;;2.33;;
39822;SDS011;25499;53.958;10.970;2023-03-13T08:59:41;4.80;;;2.55;;
39822;SDS011;25499;53.958;10.970;2023-03-13T09:02:07;5.72;;;2.40;;
39822;SDS011;25499;53.958;10.970;2023-03-13T09:04:33;4.47;;;2.63;;
39822;SDS011;25499;53.958;10.970;2023-03-13T09:06:59;5.95;;;2.20;;
39822;SDS011;25499;53.958;10.970;2023-03-13T09:09:24;4.30;;;2.65;;
39822;SDS011;25499;53.958;10.970;2023-03-13T09:11:51;10.57;;;2.70;;
39822;SDS011;25499;53.958;10.970;2023-03-13T09:14:16;5.00;;;2.40;;
39822;SDS011;25499;53.958;10.970;2023-03-13T09:16:42;5.38;;;2.97;;
39822;SDS011;25499;53.958;10.970;2023-03-13T09:19:10;3.78;;;2.28;;
39822;SDS011;25499;53.958;10.970;2023-03-13T09:21:35;4.32;;;2.90;;
39822;SDS011;25499;53.958;10.970;2023-03-13T09:24:01;4.88;;;3.03;;
39822;SDS011;25499;53.958;10.970;2023-03-13T09:26:27;4.22;;;2.70;;
39822;SDS011;25499;53.958;10.970;2023-03-13T09:28:53;3.80;;;2.63;;
39822;SDS011;25499;53.958;10.970;2023-03-13T09:31:20;3.80;;;2.67;;
39822;SDS011;25499;53.958;10.970;2023-03-13T09:33:48;6.00;;;2.90;;
39822;SDS011;25499;53.958;10.970;2023-03-13T09:36:14;4.20;;;2.78;;
39822;SDS011;25499;53.958;10.970;2023-03-13T09:38:41;5.43;;;2.67;;
39822;SDS011;25499;53.958;10.970;2023-03-13T09:46:54;4.15;;;2.92;;
39822;SDS011;25499;53.958;10.970;2023-03-13T09:49:46;4.53;;;2.97;;
39822;SDS011;25499;53.958;10.970;2023-03-13T09:52:21;4.25;;;2.95;;
39822;SDS011;25499;53.958;10.970;2023-03-13T09:57:37;5.60;;;3.13;;
39822;SDS011;25499;53.958;10.970;2023-03-13T10:00:11;6.18;;;3.75;;
39822;SDS011;25499;53.958;10.970;2023-03-13T10:02:56;6.05;;;4.60;;
39822;SDS011;25499;53.958;10.970;2023-03-13T10:05:23;6.40;;;5.32;;
39822;SDS011;25499;53.958;10.970;2023-03-13T10:07:54;8.20;;;5.45;;
39822;SDS011;25499;53.958;10.970;2023-03-13T10:13:19;9.63;;;7.45;;
39822;SDS011;25499;53.958;10.970;2023-03-13T10:15:53;11.23;;;8.43;;
39822;SDS011;25499;53.958;10.970;2023-03-13T10:18:23;13.45;;;7.80;;
39822;SDS011;25499;53.958;10.970;2023-03-13T10:20:49;10.27;;;8.27;;
39822;SDS011;25499;53.958;10.970;2023-03-13T10:23:23;10.80;;;8.38;;
39822;SDS011;25499;53.958;10.970;2023-03-13T10:26:13;11.93;;;8.35;;
39822;SDS011;25499;53.958;10.970;2023-03-13T10:28:44;10.98;;;8.82;;
39822;SDS011;25499;53.958;10.970;2023-03-13T10:31:14;12.40;;;9.13;;
39822;SDS011;25499;53.958;10.970;2023-03-13T10:33:50;12.32;;;9.35;;
39822;SDS011;25499;53.958;10.970;2023-03-13T10:36:16;11.90;;;9.25;;
39822;SDS011;25499;53.958;10.970;2023-03-13T10:38:47;11.50;;;9.18;;
39822;SDS011;25499;53.958;10.970;2023-03-13T10:41:19;10.45;;;8.50;;
39822;SDS011;25499;53.958;10.970;2023-03-13T10:44:01;9.88;;;8.23;;
39822;SDS011;25499;53.958;10.970;2023-03-13T10:46:30;9.27;;;7.80;;
39822;SDS011;25499;53.958;10.970;2023-03-13T10:48:59;11.30;;;7.57;;
39822;SDS011;25499;53.958;10.970;2023-03-13T10:51:33;8.73;;;7.28;;
39822;SDS011;25499;53.958;10.970;2023-03-13T10:54:07;9.52;;;6.57;;
39822;SDS011;25499;53.958;10.970;2023-03-13T10:56:38;10.93;;;6.28;;
39822;SDS011;25499;53.958;10.970;2023-03-13T10:59:04;7.93;;;5.78;;
39822;SDS011;25499;53.958;10.970;2023-03-13T11:01:45;8.43;;;6.00;;
39822;SDS011;25499;53.958;10.970;2023-03-13T11:04:20;6.18;;;5.57;;
39822;SDS011;25499;53.958;10.970;2023-03-13T11:06:57;7.57;;;5.25;;
39822;SDS011;25499;53.958;10.970;2023-03-13T11:09:25;6.53;;;4.75;;
39822;SDS011;25499;53.958;10.970;2023-03-13T11:11:52;6.78;;;5.05;;
39822;SDS011;25499;53.958;10.970;2023-03-13T11:14:20;4.65;;;4.25;;
39822;SDS011;25499;53.958;10.970;2023-03-13T11:16:53;8.93;;;4.50;;
39822;SDS011;25499;53.958;10.970;2023-03-13T11:19:24;5.03;;;4.03;;
39822;SDS011;25499;53.958;10.970;2023-03-13T11:24:42;6.38;;;4.35;;
39822;SDS011;25499;53.958;10.970;2023-03-13T11:27:26;6.72;;;3.83;;
39822;SDS011;25499;53.958;10.970;2023-03-13T11:32:59;4.20;;;3.30;;
39822;SDS011;25499;53.958;10.970;2023-03-13T11:50:01;2.67;;;1.38;;
39822;SDS011;25499;53.958;10.970;2023-03-13T12:05:55;1.38;;;1.25;;
39822;SDS011;25499;53.958;10.970;2023-03-13T12:08:38;3.50;;;1.42;;
39822;SDS011;25499;53.958;10.970;2023-03-13T12:16:38;3.72;;;1.33;;
39822;SDS011;25499;53.958;10.970;2023-03-13T12:19:11;2.13;;;1.10;;
39822;SDS011;25499;53.958;10.970;2023-03-13T12:21:49;2.67;;;1.17;;
39822;SDS011;25499;53.958;10.970;2023-03-13T12:24:34;2.53;;;1.70;;
39822;SDS011;25499;53.958;10.970;2023-03-13T12:27:18;1.73;;;1.05;;
39822;SDS011;25499;53.958;10.970;2023-03-13T12:32:24;3.65;;;1.50;;
39822;SDS011;25499;53.958;10.970;2023-03-13T12:35:14;3.22;;;1.58;;
39822;SDS011;25499;53.958;10.970;2023-03-13T12:37:57;2.78;;;1.23;;
39822;SDS011;25499;53.958;10.970;2023-03-13T12:40:37;3.30;;;1.58;;
39822;SDS011;25499;53.958;10.970;2023-03-13T12:43:13;5.50;;;1.30;;
39822;SDS011;25499;53.958;10.970;2023-03-13T12:45:53;1.83;;;1.20;;
39822;SDS011;25499;53.958;10.970;2023-03-13T12:56:38;2.17;;;1.10;;
39822;SDS011;25499;53.958;10.970;2023-03-13T13:01:53;3.97;;;1.67;;
39822;SDS011;25499;53.958;10.970;2023-03-13T13:04:21;2.88;;;1.23;;
39822;SDS011;25499;53.958;10.970;2023-03-13T13:07:04;1.95;;;1.08;;
39822;SDS011;25499;53.958;10.970;2023-03-13T13:09:32;3.05;;;1.60;;
39822;SDS011;25499;53.958;10.970;2023-03-13T13:12:01;3.38;;;1.60;;
39822;SDS011;25499;53.958;10.970;2023-03-13T13:17:14;3.30;;;1.20;;
39822;SDS011;25499;53.958;10.970;2023-03-13T13:19:48;4.15;;;1.13;;
39822;SDS011;25499;53.958;10.970;2023-03-13T13:37:36;3.35;;;1.08;;
39822;SDS011;25499;53.958;10.970;2023-03-13T13:42:38;1.52;;;0.98;;
39822;SDS011;25499;53.958;10.970;2023-03-13T13:53:45;2.85;;;1.00;;
39822;SDS011;25499;53.958;10.970;2023-03-13T14:01:37;1.75;;;0.90;;
39822;SDS011;25499;53.958;10.970;2023-03-13T14:04:13;1.88;;;0.98;;
39822;SDS011;25499;53.958;10.970;2023-03-13T14:06:44;2.90;;;1.25;;
39822;SDS011;25499;53.958;10.970;2023-03-13T14:09:19;1.63;;;0.77;;
39822;SDS011;25499;53.958;10.970;2023-03-13T14:11:47;1.67;;;0.88;;
39822;SDS011;25499;53.958;10.970;2023-03-13T14:14:16;6.22;;;1.30;;
39822;SDS011;25499;53.958;10.970;2023-03-13T14:16:51;2.10;;;0.95;;
39822;SDS011;25499;53.958;10.970;2023-03-13T14:19:40;2.05;;;1.13;;
39822;SDS011;25499;53.958;10.970;2023-03-13T14:22:08;2.65;;;0.90;;
39822;SDS011;25499;53.958;10.970;2023-03-13T14:24:35;2.67;;;0.80;;
39822;SDS011;25499;53.958;10.970;2023-03-13T14:27:12;3.00;;;0.88;;
39822;SDS011;25499;53.958;10.970;2023-03-13T14:29:40;1.98;;;0.88;;
39822;SDS011;25499;53.958;10.970;2023-03-13T14:32:05;2.60;;;0.68;;
39822;SDS011;25499;53.958;10.970;2023-03-13T14:34:31;2.28;;;0.77;;
39822;SDS011;25499;53.958;10.970;2023-03-13T14:36:57;3.17;;;0.90;;
39822;SDS011;25499;53.958;10.970;2023-03-13T14:41:55;3.05;;;0.90;;
39822;SDS011;25499;53.958;10.970;2023-03-13T14:44:28;5.40;;;1.17;;
39822;SDS011;25499;53.958;10.970;2023-03-13T14:46:58;2.47;;;1.02;;
39822;SDS011;25499;53.958;10.970;2023-03-13T14:52:00;3.38;;;1.30;;
39822;SDS011;25499;53.958;10.970;2023-03-13T14:57:02;1.70;;;0.87;;
39822;SDS011;25499;53.958;10.970;2023-03-13T14:59:34;2.67;;;0.88;;
39822;SDS011;25499;53.958;10.970;2023-03-13T15:07:35;7.20;;;1.10;;
39822;SDS011;25499;53.958;10.970;2023-03-13T15:10:17;3.40;;;0.80;;
39822;SDS011;25499;53.958;10.970;2023-03-13T15:12:44;3.13;;;0.80;;
39822;SDS011;25499;53.958;10.970;2023-03-13T15:15:09;5.43;;;1.17;;
39822;SDS011;25499;53.958;10.970;2023-03-13T15:17:35;2.35;;;0.82;;
39822;SDS011;25499;53.958;10.970;2023-03-13T15:20:02;2.97;;;0.85;;
39822;SDS011;25499;53.958;10.970;2023-03-13T15:22:37;1.38;;;0.85;;
39822;SDS011;25499;53.958;10.970;2023-03-13T15:25:08;2.60;;;0.73;;
39822;SDS011;25499;53.958;10.970;2023-03-13T15:27:38;1.75;;;0.80;;
39822;SDS011;25499;53.958;10.970;2023-03-13T15:30:04;2.50;;;0.90;;
39822;SDS011;25499;53.958;10.970;2023-03-13T15:32:34;3.72;;;0.73;;
39822;SDS011;25499;53.958;10.970;2023-03-13T15:35:01;2.97;;;1.13;;
39822;SDS011;25499;53.958;10.970;2023-03-13T15:37:42;3.25;;;0.70;;
39822;SDS011;25499;53.958;10.970;2023-03-13T15:40:14;3.72;;;1.20;;
39822;SDS011;25499;53.958;10.970;2023-03-13T15:42:40;4.00;;;1.13;;
39822;SDS011;25499;53.958;10.970;2023-03-13T15:45:06;2.45;;;0.90;;
39822;SDS011;25499;53.958;10.970;2023-03-13T15:47:32;4.85;;;1.20;;
39822;SDS011;25499;53.958;10.970;2023-03-13T15:49:58;4.95;;;1.23;;
39822;SDS011;25499;53.958;10.970;2023-03-13T15:52:23;3.08;;;1.02;;
39822;SDS011;25499;53.958;10.970;2023-03-13T15:54:49;3.35;;;1.10;;
39822;SDS011;25499;53.958;10.970;2023-03-13T15:57:24;2.28;;;1.10;;
39822;SDS011;25499;53.958;10.970;2023-03-13T15:59:51;1.95;;;0.82;;
39822;SDS011;25499;53.958;10.970;2023-03-13T16:02:18;1.67;;;0.90;;
39822;SDS011;25499;53.958;10.970;2023-03-13T16:04:46;2.10;;;0.85;;
39822;SDS011;25499;53.958;10.970;2023-03-13T16:07:12;3.45;;;1.23;;
39822;SDS011;25499;53.958;10.970;2023-03-13T16:09:40;2.78;;;0.73;;
39822;SDS011;25499;53.958;10.970;2023-03-13T16:12:07;1.98;;;0.70;;
39822;SDS011;25499;53.958;10.970;2023-03-13T16:14:33;3.75;;;1.00;;
39822;SDS011;25499;53.958;10.970;2023-03-13T16:16:59;1.25;;;0.70;;
39822;SDS011;25499;53.958;10.970;2023-03-13T16:19:26;4.03;;;1.27;;
39822;SDS011;25499;53.958;10.970;2023-03-13T16:21:52;3.95;;;0.70;;
39822;SDS011;25499;53.958;10.970;2023-03-13T16:24:17;2.13;;;0.90;;
39822;SDS011;25499;53.958;10.970;2023-03-13T16:26:44;4.40;;;1.02;;
39822;SDS011;25499;53.958;10.970;2023-03-13T16:29:10;3.53;;;1.17;;
39822;SDS011;25499;53.958;10.970;2023-03-13T16:31:37;1.33;;;0.80;;
39822;SDS011;25499;53.958;10.970;2023-03-13T16:34:03;3.88;;;0.90;;
39822;SDS011;25499;53.958;10.970;2023-03-13T16:36:29;4.15;;;0.93;;
39822;SDS011;25499;53.958;10.970;2023-03-13T16:38:56;2.47;;;0.95;;
39822;SDS011;25499;53.958;10.970;2023-03-13T16:41:24;1.55;;;0.70;;
39822;SDS011;25499;53.958;10.970;2023-03-13T16:43:51;2.95;;;0.77;;
39822;SDS011;25499;53.958;10.970;2023-03-13T16:46:21;4.05;;;1.10;;
39822;SDS011;25499;53.958;10.970;2023-03-13T16:48:48;4.22;;;0.98;;
39822;SDS011;25499;53.958;10.970;2023-03-13T16:51:15;2.78;;;1.05;;
39822;SDS011;25499;53.958;10.970;2023-03-13T16:53:46;1.75;;;0.73;;
39822;SDS011;25499;53.958;10.970;2023-03-13T16:56:14;3.47;;;1.10;;
39822;SDS011;25499;53.958;10.970;2023-03-13T16:58:45;5.70;;;0.90;;
39822;SDS011;25499;53.958;10.970;2023-03-13T17:01:11;1.85;;;0.80;;
39822;SDS011;25499;53.958;10.970;2023-03-13T17:03:36;1.63;;;1.00;;
39822;SDS011;25499;53.958;10.970;2023-03-13T17:06:02;2.47;;;0.80;;
39822;SDS011;25499;53.958;10.970;2023-03-13T17:08:28;2.15;;;0.80;;
39822;SDS011;25499;53.958;10.970;2023-03-13T17:10:53;2.58;;;0.73;;
39822;SDS011;25499;53.958;10.970;2023-03-13T17:13:19;3.00;;;1.20;;
39822;SDS011;25499;53.958;10.970;2023-03-13T17:15:47;1.88;;;0.70;;
39822;SDS011;25499;53.958;10.970;2023-03-13T17:18:12;2.05;;;0.90;;
39822;SDS011;25499;53.958;10.970;2023-03-13T17:20:37;1.50;;;0.70;;
39822;SDS011;25499;53.958;10.970;2023-03-13T17:23:03;4.65;;;1.00;;
39822;SDS011;25499;53.958;10.970;2023-03-13T17:25:28;2.67;;;0.93;;
39822;SDS011;25499;53.958;10.970;2023-03-13T17:27:54;1.63;;;0.75;;
39822;SDS011;25499;53.958;10.970;2023-03-13T17:30:24;5.60;;;0.70;;
39822;SDS011;25499;53.958;10.970;2023-03-13T17:32:52;1.65;;;0.55;;
39822;SDS011;25499;53.958;10.970;2023-03-13T17:35:18;2.03;;;0.80;;
39822;SDS011;25499;53.958;10.970;2023-03-13T17:37:44;1.40;;;0.75;;
39822;SDS011;25499;53.958;10.970;2023-03-13T17:40:20;2.53;;;0.93;;
39822;SDS011;25499;53.958;10.970;2023-03-13T17:42:48;2.17;;;0.80;;
39822;SDS011;25499;53.958;10.970;2023-03-13T17:45:14;2.00;;;0.63;;
39822;SDS011;25499;53.958;10.970;2023-03-13T17:47:39;2.72;;;0.80;;
39822;SDS011;25499;53.958;10.970;2023-03-13T17:50:26;1.98;;;0.57;;
39822;SDS011;25499;53.958;10.970;2023-03-13T17:52:53;3.45;;;0.90;;
39822;SDS011;25499;53.958;10.970;2023-03-13T17:55:18;1.77;;;0.60;;
39822;SDS011;25499;53.958;10.970;2023-03-13T17:57:44;4.15;;;1.30;;
39822;SDS011;25499;53.958;10.970;2023-03-13T18:00:19;3.20;;;0.70;;
39822;SDS011;25499;53.958;10.970;2023-03-13T18:02:45;3.20;;;0.85;;
39822;SDS011;25499;53.958;10.970;2023-03-13T18:05:11;1.48;;;0.70;;
39822;SDS011;25499;53.958;10.970;2023-03-13T18:07:36;3.22;;;1.08;;
39822;SDS011;25499;53.958;10.970;2023-03-13T18:10:11;1.45;;;0.63;;
39822;SDS011;25499;53.958;10.970;2023-03-13T18:12:40;3.13;;;0.70;;
39822;SDS011;25499;53.958;10.970;2023-03-13T18:15:06;6.50;;;0.90;;
39822;SDS011;25499;53.958;10.970;2023-03-13T18:17:31;1.80;;;0.90;;
39822;SDS011;25499;53.958;10.970;2023-03-13T18:19:57;2.63;;;1.23;;
39822;SDS011;25499;53.958;10.970;2023-03-13T18:22:22;3.97;;;0.65;;
39822;SDS011;25499;53.958;10.970;2023-03-13T18:24:50;3.38;;;1.00;;
39822;SDS011;25499;53.958;10.970;2023-03-13T18:27:17;2.55;;;0.73;;
39822;SDS011;25499;53.958;10.970;2023-03-13T18:29:44;4.25;;;1.00;;
39822;SDS011;25499;53.958;10.970;2023-03-13T18:32:13;1.85;;;1.02;;
39822;SDS011;25499;53.958;10.970;2023-03-13T18:34:40;4.07;;;1.25;;
39822;SDS011;25499;53.958;10.970;2023-03-13T18:39:52;3.22;;;1.00;;
39822;SDS011;25499;53.958;10.970;2023-03-13T18:42:19;1.73;;;0.80;;
39822;SDS011;25499;53.958;10.970;2023-03-13T18:44:46;2.65;;;0.98;;
39822;SDS011;25499;53.958;10.970;2023-03-13T18:47:12;3.33;;;1.20;;
39822;SDS011;25499;53.958;10.970;2023-03-13T18:49:40;4.95;;;1.17;;
39822;SDS011;25499;53.958;10.970;2023-03-13T18:52:06;4.22;;;1.63;;
39822;SDS011;25499;53.958;10.970;2023-03-13T18:54:32;3.55;;;1.00;;
39822;SDS011;25499;53.958;10.970;2023-03-13T18:56:57;9.05;;;1.33;;
39822;SDS011;25499;53.958;10.970;2023-03-13T18:59:23;7.40;;;1.63;;
39822;SDS011;25499;53.958;10.970;2023-03-13T19:01:50;4.25;;;1.33;;
39822;SDS011;25499;53.958;10.970;2023-03-13T19:04:16;7.65;;;1.77;;
39822;SDS011;25499;53.958;10.970;2023-03-13T19:06:43;6.90;;;1.55;;
39822;SDS011;25499;53.958;10.970;2023-03-13T19:09:13;10.98;;;2.28;;
39822;SDS011;25499;53.958;10.970;2023-03-13T19:11:44;13.07;;;2.10;;
39822;SDS011;25499;53.958;10.970;2023-03-13T19:14:10;12.15;;;2.00;;
39822;SDS011;25499;53.958;10.970;2023-03-13T19:16:47;13.02;;;2.47;;
39822;SDS011;25499;53.958;10.970;2023-03-13T19:19:17;7.63;;;1.85;;
39822;SDS011;25499;53.958;10.970;2023-03-13T19:21:47;9.18;;;2.00;;
39822;SDS011;25499;53.958;10.970;2023-03-13T19:24:14;10.18;;;2.30;;
39822;SDS011;25499;53.958;10.970;2023-03-13T19:26:41;9.80;;;1.88;;
39822;SDS011;25499;53.958;10.970;2023-03-13T19:29:12;14.93;;;2.42;;
39822;SDS011;25499;53.958;10.970;2023-03-13T19:34:04;11.40;;;2.63;;
39822;SDS011;25499;53.958;10.970;2023-03-13T19:36:31;12.40;;;2.67;;
39822;SDS011;25499;53.958;10.970;2023-03-13T19:39:01;13.50;;;2.30;;
39822;SDS011;25499;53.958;10.970;2023-03-13T19:41:28;10.65;;;2.55;;
39822;SDS011;25499;53.958;10.970;2023-03-13T19:43:53;18.42;;;2.85;;
39822;SDS011;25499;53.958;10.970;2023-03-13T19:46:23;9.73;;;2.08;;
39822;SDS011;25499;53.958;10.970;2023-03-13T19:48:50;11.70;;;2.20;;
39822;SDS011;25499;53.958;10.970;2023-03-13T19:51:17;11.38;;;2.17;;
39822;SDS011;25499;53.958;10.970;2023-03-13T19:53:43;15.40;;;2.65;;
39822;SDS011;25499;53.958;10.970;2023-03-13T19:56:11;14.82;;;2.72;;
39822;SDS011;25499;53.958;10.970;2023-03-13T19:58:44;9.85;;;2.15;;
39822;SDS011;25499;53.958;10.970;2023-03-13T20:01:10;13.10;;;2.33;;
39822;SDS011;25499;53.958;10.970;2023-03-13T20:03:37;12.68;;;2.70;;
39822;SDS011;25499;53.958;10.970;2023-03-13T20:06:03;11.25;;;2.30;;
39822;SDS011;25499;53.958;10.970;2023-03-13T20:08:28;14.55;;;2.83;;
39822;SDS011;25499;53.958;10.970;2023-03-13T20:10:54;13.85;;;2.60;;
39822;SDS011;25499;53.958;10.970;2023-03-13T20:13:19;15.20;;;2.35;;
39822;SDS011;25499;53.958;10.970;2023-03-13T20:15:45;9.05;;;2.35;;
39822;SDS011;25499;53.958;10.970;2023-03-13T20:18:10;12.10;;;2.55;;
39822;SDS011;25499;53.958;10.970;2023-03-13T20:20:35;13.93;;;2.80;;
39822;SDS011;25499;53.958;10.970;2023-03-13T20:23:01;17.52;;;2.50;;
39822;SDS011;25499;53.958;10.970;2023-03-13T20:25:26;13.98;;;2.83;;
39822;SDS011;25499;53.958;10.970;2023-03-13T20:27:52;12.05;;;2.30;;
39822;SDS011;25499;53.958;10.970;2023-03-13T20:30:18;13.98;;;2.50;;
39822;SDS011;25499;53.958;10.970;2023-03-13T20:32:43;15.82;;;2.78;;
39822;SDS011;25499;53.958;10.970;2023-03-13T20:35:09;14.10;;;2.50;;
39822;SDS011;25499;53.958;10.970;2023-03-13T20:37:39;14.73;;;2.70;;
39822;SDS011;25499;53.958;10.970;2023-03-13T20:40:05;11.63;;;2.55;;
39822;SDS011;25499;53.958;10.970;2023-03-13T20:42:32;14.02;;;2.90;;
39822;SDS011;25499;53.958;10.970;2023-03-13T20:44:57;16.40;;;2.88;;
39822;SDS011;25499;53.958;10.970;2023-03-13T20:47:23;14.45;;;2.80;;
39822;SDS011;25499;53.958;10.970;2023-03-13T20:49:48;12.77;;;2.63;;
39822;SDS011;25499;53.958;10.970;2023-03-13T20:52:14;11.90;;;2.20;;
39822;SDS011;25499;53.958;10.970;2023-03-13T20:54:40;14.73;;;2.83;;
39822;SDS011;25499;53.958;10.970;2023-03-13T20:57:06;14.57;;;2.80;;
39822;SDS011;25499;53.958;10.970;2023-03-13T20:59:32;19.05;;;2.80;;
39822;SDS011;25499;53.958;10.970;2023-03-13T21:01:58;11.98;;;2.33;;
39822;SDS011;25499;53.958;10.970;2023-03-13T21:04:23;14.18;;;2.35;;
39822;SDS011;25499;53.958;10.970;2023-03-13T21:06:49;15.85;;;2.50;;
39822;SDS011;25499;53.958;10.970;2023-03-13T21:09:14;15.25;;;2.72;;
39822;SDS011;25499;53.958;10.970;2023-03-13T21:11:40;10.27;;;2.30;;
39822;SDS011;25499;53.958;10.970;2023-03-13T21:14:05;12.10;;;2.47;;
39822;SDS011;25499;53.958;10.970;2023-03-13T21:16:31;12.27;;;2.45;;
39822;SDS011;25499;53.958;10.970;2023-03-13T21:18:56;15.68;;;2.92;;
39822;SDS011;25499;53.958;10.970;2023-03-13T21:21:22;15.82;;;3.05;;
39822;SDS011;25499;53.958;10.970;2023-03-13T21:23:48;9.52;;;2.28;;
